createdAt,value
2019-06-10T00:01:51.420Z,3.40
2019-06-10T00:06:50.921Z,4.50
2019-06-10T00:11:51.436Z,5.50
2019-06-10T00:16:50.868Z,4.90
2019-06-10T00:21:50.941Z,3.60
2019-06-10T00:26:51.111Z,3.20
2019-06-10T00:31:50.816Z,3.80
2019-06-10T00:36:50.872Z,3.80
2019-06-10T00:41:52.093Z,4.40
2019-06-10T00:46:51.665Z,4.30
2019-06-10T00:51:50.909Z,5.80
2019-06-10T00:56:51.754Z,4.30
2019-06-10T01:01:50.871Z,4.60
2019-06-10T01:06:51.370Z,3.80
2019-06-10T01:11:51.660Z,4.20
2019-06-10T01:16:50.641Z,5.10
2019-06-10T01:21:51.212Z,5.30
2019-06-10T01:26:50.569Z,4.30
2019-06-10T01:31:51.281Z,3.20
2019-06-10T01:36:50.987Z,3.70
2019-06-10T01:41:51.222Z,4.70
2019-06-10T01:46:51.546Z,4.30
2019-06-10T01:51:51.605Z,4.50
2019-06-10T01:56:51.024Z,3.90
2019-06-10T02:01:51.629Z,5.50
2019-06-10T02:06:51.094Z,4.80
2019-06-10T02:11:51.387Z,4.30
2019-06-10T02:16:50.712Z,3.60
2019-06-10T02:21:51.054Z,5.40
2019-06-10T02:26:51.596Z,4.20
2019-06-10T02:31:52.127Z,4.30
2019-06-10T02:36:49.491Z,5.70
2019-06-10T02:41:52.898Z,6.00
2019-06-10T02:46:49.557Z,5.60
2019-06-10T02:51:49.842Z,4.80
2019-06-10T02:56:53.447Z,4.10
2019-06-10T03:01:49.469Z,4.80
2019-06-10T03:06:49.710Z,5.00
2019-06-10T03:11:49.543Z,4.00
2019-06-10T03:16:49.794Z,4.80
2019-06-10T03:21:52.040Z,4.80
2019-06-10T03:26:52.058Z,4.00
2019-06-10T03:31:51.109Z,6.40
2019-06-10T03:36:49.621Z,5.40
2019-06-10T03:41:49.754Z,4.40
2019-06-10T03:46:49.610Z,5.60
2019-06-10T03:51:49.857Z,5.00
2019-06-10T03:56:51.959Z,4.70
2019-06-10T04:01:49.509Z,6.80
2019-06-10T04:06:52.917Z,4.90
2019-06-10T04:11:49.557Z,4.50
2019-06-10T04:16:49.792Z,4.60
2019-06-10T04:21:49.678Z,4.30
2019-06-10T04:26:49.484Z,5.80
2019-06-10T04:31:52.246Z,3.70
2019-06-10T04:36:52.419Z,4.50
2019-06-10T04:41:49.805Z,5.90
2019-06-10T04:46:51.962Z,5.70
2019-06-10T04:51:52.236Z,5.40
2019-06-10T04:56:49.691Z,5.30
2019-06-10T05:01:49.531Z,5.50
2019-06-10T05:06:49.788Z,4.40
2019-06-10T05:11:52.102Z,4.80
2019-06-10T05:16:49.908Z,5.10
2019-06-10T05:21:49.720Z,5.80
2019-06-10T05:26:49.944Z,6.20
2019-06-10T05:31:52.149Z,6.00
2019-06-10T05:36:52.411Z,5.60
2019-06-10T05:41:50.823Z,6.10
2019-06-10T05:46:49.648Z,4.10
2019-06-10T05:51:49.878Z,5.00
2019-06-10T05:56:52.057Z,4.80
2019-06-10T06:01:49.963Z,7.40
2019-06-10T06:06:49.777Z,5.70
2019-06-10T06:11:49.631Z,5.70
2019-06-10T06:16:49.906Z,6.20
2019-06-10T06:21:49.689Z,4.30
2019-06-10T06:26:49.956Z,5.40
2019-06-10T06:31:52.099Z,4.60
2019-06-10T06:36:50.012Z,4.30
2019-06-10T06:41:49.852Z,5.70
2019-06-10T06:46:49.718Z,5.90
2019-06-10T06:51:56.186Z,4.70
2019-06-10T06:56:49.752Z,4.20
2019-06-10T07:01:49.550Z,5.10
2019-06-10T07:06:53.354Z,6.00
2019-06-10T07:11:49.723Z,4.30
2019-06-10T07:16:49.918Z,4.30
2019-06-10T07:22:07.535Z,5.00
2019-06-10T07:26:53.994Z,4.00
2019-06-10T07:31:51.061Z,5.10
2019-06-10T07:36:52.019Z,4.90
2019-06-10T07:41:52.624Z,7.10
2019-06-10T07:46:49.744Z,4.90
2019-06-10T07:51:52.210Z,4.40
2019-06-10T07:56:50.497Z,6.00
2019-06-10T08:01:51.612Z,5.30
2019-06-10T08:06:50.703Z,5.60
2019-06-10T08:11:49.744Z,5.10
2019-06-10T08:16:52.906Z,5.60
2019-06-10T08:21:49.903Z,6.20
2019-06-10T08:26:50.079Z,5.90
2019-06-10T08:31:50.084Z,7.30
2019-06-10T08:36:50.810Z,5.80
2019-06-10T08:41:50.002Z,6.90
2019-06-10T08:46:49.739Z,4.00
2019-06-10T08:51:50.346Z,5.90
2019-06-10T08:56:50.914Z,5.30
2019-06-10T09:01:53.669Z,4.70
2019-06-10T09:06:51.486Z,4.70
2019-06-10T09:11:52.009Z,6.60
2019-06-10T09:16:51.861Z,5.50
2019-06-10T09:21:52.790Z,4.90
2019-06-10T09:26:51.367Z,5.30
2019-06-10T09:31:52.284Z,3.70
2019-06-10T09:36:56.422Z,4.60
2019-06-10T09:41:56.646Z,4.60
2019-06-10T09:46:52.031Z,4.70
2019-06-10T09:51:52.730Z,5.70
2019-06-10T09:56:50.490Z,4.50
2019-06-10T10:01:56.653Z,4.20
2019-06-10T10:06:54.364Z,5.00
2019-06-10T10:11:51.474Z,4.30
2019-06-10T10:16:56.972Z,4.60
2019-06-10T10:21:55.105Z,4.50
2019-06-10T10:26:52.380Z,5.00
2019-06-10T10:31:52.283Z,4.30
2019-06-10T10:36:54.367Z,5.00
2019-06-10T10:41:51.951Z,4.10
2019-06-10T10:46:49.828Z,4.10
2019-06-10T10:51:51.133Z,3.90
2019-06-10T10:56:54.716Z,4.70
2019-06-10T11:01:49.752Z,4.20
2019-06-10T11:06:49.954Z,4.00
2019-06-10T11:11:52.237Z,3.90
2019-06-10T11:16:50.849Z,3.80
2019-06-10T11:21:49.880Z,5.40
2019-06-10T11:26:53.249Z,5.00
2019-06-10T11:31:50.500Z,4.40
2019-06-10T11:36:51.137Z,5.80
2019-06-10T11:41:52.482Z,5.70
2019-06-10T11:46:51.846Z,4.10
2019-06-10T11:51:52.643Z,4.30
2019-06-10T11:56:49.929Z,4.80
2019-06-10T12:01:51.436Z,4.00
2019-06-10T12:06:50.620Z,3.60
2019-06-10T12:11:51.602Z,3.90
2019-06-10T12:21:53.413Z,3.90
2019-06-10T12:26:50.144Z,3.70
2019-06-10T12:31:50.802Z,3.70
2019-06-10T12:36:50.484Z,4.10
2019-06-10T12:41:50.049Z,3.90
2019-06-10T12:46:53.300Z,4.30
2019-06-10T12:51:52.463Z,4.40
2019-06-10T12:56:49.945Z,4.10
2019-06-10T13:01:52.942Z,4.50
2019-06-10T13:06:51.986Z,6.60
2019-06-10T13:11:52.588Z,5.20
2019-06-10T13:16:52.455Z,3.60
2019-06-10T13:21:49.973Z,5.10
2019-06-10T13:26:52.238Z,4.10
2019-06-10T13:31:52.768Z,4.50
2019-06-10T13:36:49.916Z,4.80
2019-06-10T13:41:50.084Z,3.10
2019-06-10T13:46:49.946Z,5.80
2019-06-10T13:51:52.461Z,4.70
2019-06-10T13:56:52.215Z,5.10
2019-06-10T14:01:52.576Z,5.40
2019-06-10T14:06:53.319Z,4.50
2019-06-10T14:11:49.885Z,4.90
2019-06-10T14:16:52.765Z,6.50
2019-06-10T14:21:49.973Z,5.70
2019-06-10T14:26:50.212Z,5.50
2019-06-10T14:31:53.013Z,6.20
2019-06-10T14:36:52.349Z,6.60
2019-06-10T14:41:52.343Z,5.90
2019-06-10T14:46:49.951Z,5.20
2019-06-10T14:51:50.204Z,6.30
2019-06-10T14:56:54.706Z,5.00
2019-06-10T15:01:52.138Z,7.20
2019-06-10T15:06:50.086Z,6.30
2019-06-10T15:11:52.152Z,5.20
2019-06-10T15:16:53.153Z,4.30
2019-06-10T15:21:52.232Z,6.40
2019-06-10T15:27:05.964Z,4.90
2019-06-10T15:32:07.871Z,6.10
2019-06-10T15:36:52.585Z,6.80
2019-06-10T15:41:52.183Z,5.90
2019-06-10T15:46:52.300Z,4.40
2019-06-10T15:51:52.431Z,4.00
2019-06-10T15:56:55.790Z,4.10
2019-06-10T16:01:50.303Z,5.80
2019-06-10T16:06:50.113Z,4.00
2019-06-10T16:11:50.391Z,5.30
2019-06-10T16:16:52.437Z,4.60
2019-06-10T16:21:52.364Z,3.70
2019-06-10T16:26:52.441Z,3.50
2019-06-10T16:31:50.087Z,3.60
2019-06-10T16:36:50.343Z,3.40
2019-06-10T16:41:52.195Z,3.30
2019-06-10T16:46:52.531Z,3.50
2019-06-10T16:51:52.180Z,5.10
2019-06-10T16:56:52.168Z,3.70
2019-06-10T17:01:50.306Z,3.50
2019-06-10T17:06:52.477Z,3.70
2019-06-10T17:11:49.989Z,2.90
2019-06-10T17:16:52.294Z,2.80
2019-06-10T17:21:50.064Z,4.10
2019-06-10T17:26:50.314Z,3.10
2019-06-10T17:31:50.099Z,3.30
2019-06-10T17:36:50.393Z,2.60
2019-06-10T17:41:50.206Z,2.60
2019-06-10T17:46:50.031Z,3.00
2019-06-10T17:51:52.456Z,2.40
2019-06-10T17:56:50.113Z,3.80
2019-06-10T18:01:52.405Z,2.40
2019-06-10T18:06:52.765Z,2.40
2019-06-10T18:11:50.422Z,2.00
2019-06-10T18:16:52.377Z,2.50
2019-06-10T18:21:52.149Z,2.30
2019-06-10T18:26:52.748Z,2.20
2019-06-10T18:31:50.212Z,2.20
2019-06-10T18:36:52.001Z,3.10
2019-06-10T18:41:52.710Z,2.90
2019-06-10T18:46:50.105Z,2.30
2019-06-10T18:51:53.003Z,2.70
2019-06-10T18:56:52.391Z,2.30
2019-06-10T19:01:52.754Z,2.40
2019-06-10T19:06:52.552Z,1.70
2019-06-10T19:11:50.078Z,2.20
2019-06-10T19:16:52.289Z,2.10
2019-06-10T19:22:02.730Z,2.60
2019-06-10T19:26:52.608Z,1.80
2019-06-10T19:31:52.479Z,2.00
2019-06-10T19:36:52.168Z,2.20
2019-06-10T19:41:52.834Z,2.20
2019-06-10T19:46:52.109Z,2.20
2019-06-10T19:51:52.467Z,2.10
2019-06-10T19:56:52.289Z,2.20
2019-06-10T20:01:50.445Z,2.10
2019-06-10T20:06:50.764Z,2.30
2019-06-10T20:11:50.495Z,2.10
2019-06-10T20:16:52.733Z,2.20
2019-06-10T20:21:50.163Z,1.80
2019-06-10T20:26:52.740Z,1.80
2019-06-10T20:31:52.281Z,1.80
2019-06-10T20:36:50.471Z,1.80
2019-06-10T20:41:54.826Z,2.00
2019-06-10T20:46:50.135Z,2.10
2019-06-10T20:56:52.809Z,1.70
2019-06-10T21:01:51.397Z,1.60
2019-06-10T21:06:52.994Z,2.00
2019-06-10T21:11:51.323Z,1.70
2019-06-10T21:16:52.961Z,1.90
2019-06-10T21:21:54.210Z,1.50
2019-06-10T21:26:54.284Z,1.70
2019-06-10T21:31:52.209Z,1.50
2019-06-10T21:36:52.746Z,1.40
2019-06-10T21:41:52.950Z,1.50
2019-06-10T21:46:50.379Z,1.50
2019-06-10T21:51:52.227Z,2.10
2019-06-10T21:56:54.064Z,1.30
2019-06-10T22:01:51.244Z,1.30
2019-06-10T22:06:52.888Z,1.60
2019-06-10T22:11:52.605Z,1.30
2019-06-10T22:16:52.895Z,1.40
2019-06-10T22:21:51.204Z,1.60
2019-06-10T22:26:51.011Z,1.50
2019-06-10T22:31:53.211Z,1.40
2019-06-10T22:36:52.842Z,1.60
2019-06-10T22:41:53.651Z,1.30
2019-06-10T22:46:52.173Z,1.70
2019-06-10T22:51:53.389Z,1.40
2019-06-10T22:56:51.957Z,1.80
2019-06-10T23:01:53.573Z,1.60
2019-06-10T23:06:53.038Z,1.70
2019-06-10T23:11:53.113Z,1.40
2019-06-10T23:16:51.462Z,1.60
2019-06-10T23:21:51.801Z,1.50
2019-06-10T23:26:51.570Z,1.20
2019-06-10T23:31:54.432Z,1.80
2019-06-10T23:36:53.275Z,1.50
2019-06-10T23:41:52.840Z,1.40
2019-06-10T23:46:51.104Z,1.50
2019-06-10T23:51:53.817Z,1.40
2019-06-10T23:56:50.482Z,1.20
